KGGP

Details ICAO KGGP
Name LOGANSPORT CASS CO
Region United States
Timezone America/Indiana/Indianapolis (UTC-5.0)
Plans Departing 0
Arriving 3
Stats Elevation 738 ft / 225 m (AMSL)
Location 40.711247° -86.374887°
Runways 1
Magnetic Variation 4.723° W
Sunrise 2017-12-13 13:02:34 UTC / 2017-12-13 08:02:34 Local
Sunset 2017-12-13 22:19:54 UTC / 2017-12-13 17:19:54 Local
Advertisement - Login to hide

Runways

ID Width Length Bearing (true) Bearing (mag) Surface Threshold Offset Overrun Length
09 75 ft / 23 m 4,467 ft / 1,361 m 89.37° 94.09° Asphalt 215 ft / 66 m 0 ft / 0 m
27 75 ft / 23 m 4,467 ft / 1,361 m 269.38° 274.10° Asphalt 0 ft / 0 m 0 ft / 0 m

Map

Weather


0- 5 10 15 20 25 30 35+ Temperature / ° C

Clouds and Precipitation
Forecast for 2017-12-14 00:00 UTC. Updated 2 hours ago

Ground ~20,000 ft ~40,000 ft Winds

METAR

KGGP 132235Z AUTO 23014G18KT 10SM -RA OVC018 01/00 A2934 RMK AO2

TAF

Not found

Frequencies

Unicom 122.80 MHz CTAF/UNICOM
Approach 121.05 MHz GRISSOM APP/DEP
Warning: Do not use this data for real-world aviation or navigation. No guarantee of current accuracy is given.